Time;durP1;ratioP1;P1;durP2;ratioP2;P2;SDS_P1;SDS_P2;PMS_P1;PMS_P2;Temp;Humidity;BMP_temperature;BMP_pressure;BME280_temperature;BME280_humidity;BME280_pressure;Samples;Min_cycle;Max_cycle;Signal;HPM_P1;HPM_P2
2021/06/15 00:01:27;;;;;;;7.57;4.70;;;;;;;;;;4960434;28;20450;-96
2021/06/15 00:03:54;;;;;;;6.22;5.07;;;;;;;;;;4965455;28;20518;-94
2021/06/15 00:06:21;;;;;;;7.13;4.60;;;;;;;;;;4964864;28;20509;-95
2021/06/15 00:08:48;;;;;;;8.02;4.78;;;;;;;;;;4963472;28;20426;-94
2021/06/15 00:11:15;;;;;;;6.97;4.70;;;;;;;;;;4956871;28;20435;-95
2021/06/15 00:13:43;;;;;;;7.07;5.20;;;;;;;;;;4954360;28;20509;-95
2021/06/15 00:16:10;;;;;;;5.22;4.43;;;;;;;;;;4958261;28;20427;-95
2021/06/15 00:18:37;;;;;;;5.97;4.85;;;;;;;;;;4960796;28;20820;-95
2021/06/15 00:21:05;;;;;;;6.90;5.00;;;;;;;;;;4963940;28;20505;-95
2021/06/15 00:23:32;;;;;;;7.95;5.30;;;;;;;;;;4963987;28;20774;-95
2021/06/15 00:25:59;;;;;;;6.07;4.97;;;;;;;;;;4967702;28;20497;-96
2021/06/15 00:28:26;;;;;;;8.45;5.57;;;;;;;;;;4965829;28;20445;-94
2021/06/15 00:30:55;;;;;;;7.28;5.00;;;;;;;;;;4966036;28;20505;-95
2021/06/15 00:33:22;;;;;;;9.70;5.20;;;;;;;;;;4957946;28;20421;-95
2021/06/15 00:35:49;;;;;;;7.25;5.00;;;;;;;;;;4963762;28;20501;-95
2021/06/15 00:38:16;;;;;;;6.82;4.82;;;;;;;;;;4964837;28;20455;-95
2021/06/15 00:40:43;;;;;;;6.38;4.75;;;;;;;;;;4961383;28;20417;-95
2021/06/15 00:43:10;;;;;;;6.50;4.90;;;;;;;;;;4959193;28;20416;-95
2021/06/15 00:45:37;;;;;;;5.50;4.90;;;;;;;;;;4959867;28;20432;-95
2021/06/15 00:48:07;;;;;;;7.15;5.05;;;;;;;;;;4961133;28;20782;-95
2021/06/15 00:50:35;;;;;;;6.18;5.03;;;;;;;;;;4960086;28;20423;-95
2021/06/15 00:53:02;;;;;;;6.30;5.38;;;;;;;;;;4972290;28;20417;-95
2021/06/15 00:55:29;;;;;;;7.20;5.07;;;;;;;;;;4978490;28;20422;-96
2021/06/15 00:57:56;;;;;;;7.18;5.10;;;;;;;;;;4970708;28;20928;-95
2021/06/15 01:00:23;;;;;;;7.55;5.20;;;;;;;;;;4970371;28;20513;-95
2021/06/15 01:02:51;;;;;;;7.68;4.72;;;;;;;;;;4971062;28;20419;-95
2021/06/15 01:05:19;;;;;;;6.85;4.63;;;;;;;;;;4974261;28;21834;-95
2021/06/15 01:08:01;;;;;;;8.65;4.90;;;;;;;;;;4990055;28;20916;-96
2021/06/15 01:10:43;;;;;;;5.00;4.50;;;;;;;;;;4966112;28;20410;-95
2021/06/15 01:13:24;;;;;;;5.60;4.90;;;;;;;;;;4967805;28;20437;-96
2021/06/15 01:16:01;;;;;;;6.22;4.57;;;;;;;;;;4972598;28;20493;-95
2021/06/15 01:18:30;;;;;;;5.00;4.50;;;;;;;;;;4973846;28;20418;-95
2021/06/15 01:21:03;;;;;;;6.07;4.68;;;;;;;;;;4974021;28;20425;-96
2021/06/15 01:23:45;;;;;;;5.55;4.80;;;;;;;;;;4976786;28;20414;-95
2021/06/15 01:26:38;;;;;;;5.90;4.60;;;;;;;;;;4984621;28;20414;-96
2021/06/15 01:29:11;;;;;;;7.35;5.15;;;;;;;;;;4973172;28;20428;-96
2021/06/15 01:31:42;;;;;;;5.38;4.82;;;;;;;;;;4973459;28;20418;-96
2021/06/15 01:34:12;;;;;;;7.03;5.00;;;;;;;;;;4973860;28;20415;-95
2021/06/15 01:36:42;;;;;;;5.95;4.55;;;;;;;;;;4973372;28;20542;-95
2021/06/15 01:39:13;;;;;;;7.43;4.63;;;;;;;;;;4973237;28;20768;-95
2021/06/15 01:41:43;;;;;;;6.05;5.45;;;;;;;;;;4972611;28;20770;-96
2021/06/15 01:44:14;;;;;;;9.50;5.63;;;;;;;;;;4973005;28;20422;-95
2021/06/15 01:46:47;;;;;;;8.80;6.60;;;;;;;;;;4971453;28;20419;-94
2021/06/15 01:49:19;;;;;;;11.40;7.55;;;;;;;;;;4971415;28;20433;-95
2021/06/15 01:51:48;;;;;;;10.40;7.80;;;;;;;;;;4973404;28;20968;-96
2021/06/15 01:54:22;;;;;;;10.40;7.68;;;;;;;;;;4973278;28;20426;-95
2021/06/15 01:56:50;;;;;;;12.15;8.38;;;;;;;;;;4973111;28;20430;-96
2021/06/15 01:59:20;;;;;;;11.25;8.55;;;;;;;;;;4973144;28;20969;-96
2021/06/15 02:01:54;;;;;;;9.03;7.93;;;;;;;;;;4972952;28;20506;-96
2021/06/15 02:04:22;;;;;;;10.20;8.07;;;;;;;;;;4973195;28;20445;-96
2021/06/15 02:06:51;;;;;;;8.88;7.97;;;;;;;;;;4973077;28;20518;-96
2021/06/15 02:09:19;;;;;;;11.30;8.67;;;;;;;;;;4972760;28;20831;-96
2021/06/15 02:11:47;;;;;;;9.57;8.40;;;;;;;;;;4973200;28;20422;-96
2021/06/15 02:14:20;;;;;;;9.13;8.23;;;;;;;;;;4973070;28;20779;-96
2021/06/15 02:16:50;;;;;;;9.63;8.45;;;;;;;;;;4972882;28;20425;-96
2021/06/15 02:19:19;;;;;;;8.68;7.80;;;;;;;;;;4972873;28;20411;-96
2021/06/15 02:21:49;;;;;;;8.75;7.85;;;;;;;;;;4972580;28;20422;-96
2021/06/15 02:24:18;;;;;;;9.20;8.17;;;;;;;;;;4972836;28;20478;-96
2021/06/15 02:26:46;;;;;;;9.23;8.02;;;;;;;;;;4972768;28;20437;-95
2021/06/15 02:29:13;;;;;;;9.13;7.78;;;;;;;;;;4972505;28;20924;-95
2021/06/15 02:31:48;;;;;;;9.27;8.33;;;;;;;;;;4972574;28;20422;-95
2021/06/15 02:34:19;;;;;;;9.32;8.00;;;;;;;;;;4972865;28;20419;-96
2021/06/15 02:36:47;;;;;;;9.23;8.18;;;;;;;;;;4973011;28;20416;-96
2021/06/15 02:39:18;;;;;;;10.00;8.13;;;;;;;;;;4971514;28;20766;-96
2021/06/15 02:41:45;;;;;;;9.48;8.02;;;;;;;;;;4970413;28;20422;-96
2021/06/15 02:44:15;;;;;;;10.35;7.97;;;;;;;;;;4970430;28;20736;-96
2021/06/15 02:46:44;;;;;;;9.18;8.05;;;;;;;;;;4970372;28;20414;-95
2021/06/15 02:49:14;;;;;;;10.50;8.20;;;;;;;;;;4969979;28;20518;-96
2021/06/15 02:51:49;;;;;;;9.23;7.95;;;;;;;;;;4969845;28;20425;-95
2021/06/15 02:54:22;;;;;;;9.27;7.68;;;;;;;;;;4969814;28;20778;-96
2021/06/15 02:56:52;;;;;;;10.50;8.02;;;;;;;;;;4969823;28;20419;-95
2021/06/15 02:59:20;;;;;;;9.35;8.10;;;;;;;;;;4969888;28;20902;-96
2021/06/15 03:01:47;;;;;;;9.07;8.13;;;;;;;;;;4969997;28;20457;-96
2021/06/15 03:04:14;;;;;;;10.20;8.57;;;;;;;;;;4970082;28;20437;-96
2021/06/15 03:06:43;;;;;;;9.57;8.68;;;;;;;;;;4969973;28;20850;-96
2021/06/15 03:09:11;;;;;;;12.63;8.05;;;;;;;;;;4969512;28;20927;-96
2021/06/15 03:11:43;;;;;;;11.52;9.43;;;;;;;;;;4969698;28;20784;-96
2021/06/15 03:14:14;;;;;;;10.88;9.55;;;;;;;;;;4969484;28;20505;-95
2021/06/15 03:16:42;;;;;;;14.30;11.10;;;;;;;;;;4969606;28;20441;-95
2021/06/15 03:19:15;;;;;;;12.10;10.82;;;;;;;;;;4969653;28;20916;-96
2021/06/15 03:21:48;;;;;;;13.68;12.05;;;;;;;;;;4969451;28;20410;-96
2021/06/15 03:24:20;;;;;;;12.55;11.30;;;;;;;;;;4969712;28;20410;-96
2021/06/15 03:26:54;;;;;;;13.57;12.15;;;;;;;;;;4969783;28;20426;-96
2021/06/15 03:29:24;;;;;;;14.30;12.73;;;;;;;;;;4968536;28;20924;-96
2021/06/15 03:31:54;;;;;;;19.17;13.55;;;;;;;;;;4969376;28;20430;-96
2021/06/15 03:34:26;;;;;;;15.32;11.90;;;;;;;;;;4969535;28;20414;-96
2021/06/15 03:36:57;;;;;;;14.60;12.55;;;;;;;;;;4969530;28;20433;-95
2021/06/15 03:39:25;;;;;;;14.75;11.90;;;;;;;;;;4969740;28;20940;-96
2021/06/15 03:41:54;;;;;;;14.25;12.13;;;;;;;;;;4969531;28;20414;-96
2021/06/15 03:44:22;;;;;;;13.35;11.65;;;;;;;;;;4969149;28;20505;-96
2021/06/15 03:46:52;;;;;;;14.38;12.60;;;;;;;;;;4969055;28;20421;-96
2021/06/15 03:49:22;;;;;;;14.57;12.02;;;;;;;;;;4968867;28;20433;-96
2021/06/15 03:51:53;;;;;;;13.20;11.75;;;;;;;;;;4969348;28;20426;-95
2021/06/15 03:54:23;;;;;;;13.18;11.60;;;;;;;;;;4968823;28;20421;-96
2021/06/15 03:56:51;;;;;;;12.20;11.07;;;;;;;;;;4968822;28;20517;-96
2021/06/15 03:59:22;;;;;;;13.18;10.95;;;;;;;;;;4969000;28;20423;-96
2021/06/15 04:01:52;;;;;;;12.32;11.13;;;;;;;;;;4969070;28;20472;-95
2021/06/15 04:04:20;;;;;;;12.15;10.90;;;;;;;;;;4968594;28;20739;-96
2021/06/15 04:06:50;;;;;;;11.88;10.57;;;;;;;;;;4952554;28;20429;-96
2021/06/15 04:09:22;;;;;;;13.55;11.00;;;;;;;;;;4955777;28;20523;-96
2021/06/15 04:11:50;;;;;;;13.77;11.27;;;;;;;;;;4957205;28;20510;-96
2021/06/15 04:14:18;;;;;;;12.60;11.30;;;;;;;;;;4964847;28;20606;-96
2021/06/15 04:16:46;;;;;;;12.68;11.38;;;;;;;;;;4968485;28;20420;-95
2021/06/15 04:19:16;;;;;;;13.82;11.80;;;;;;;;;;4968225;28;20501;-95
2021/06/15 04:21:46;;;;;;;13.20;11.80;;;;;;;;;;4968116;28;20434;-95
2021/06/15 04:24:19;;;;;;;13.55;12.13;;;;;;;;;;4968898;28;20406;-95
2021/06/15 04:26:47;;;;;;;15.32;11.88;;;;;;;;;;4968701;28;20453;-96
2021/06/15 04:29:16;;;;;;;13.55;11.30;;;;;;;;;;4968181;28;20429;-95
2021/06/15 04:31:45;;;;;;;13.52;11.57;;;;;;;;;;4968036;28;20535;-95
2021/06/15 04:34:13;;;;;;;13.80;12.30;;;;;;;;;;4968134;28;20506;-95
2021/06/15 04:36:41;;;;;;;14.07;12.23;;;;;;;;;;4968379;28;20420;-95
2021/06/15 04:39:14;;;;;;;14.82;13.25;;;;;;;;;;4969520;28;20418;-96
2021/06/15 04:41:49;;;;;;;15.15;12.57;;;;;;;;;;4972904;28;20422;-95
2021/06/15 04:44:24;;;;;;;14.02;12.52;;;;;;;;;;4972181;28;20422;-95
2021/06/15 04:46:54;;;;;;;15.25;13.05;;;;;;;;;;4972117;28;20436;-96
2021/06/15 04:49:32;;;;;;;16.17;13.25;;;;;;;;;;4971781;28;20422;-95
2021/06/15 04:52:02;;;;;;;13.93;12.43;;;;;;;;;;4952761;29;20416;-95
2021/06/15 04:54:34;;;;;;;14.33;12.40;;;;;;;;;;4953184;28;20841;-96
2021/06/15 04:57:03;;;;;;;16.37;12.57;;;;;;;;;;4972160;28;20438;-95
2021/06/15 04:59:34;;;;;;;14.50;11.77;;;;;;;;;;4974503;28;20421;-96
2021/06/15 05:02:02;;;;;;;13.38;11.98;;;;;;;;;;4971514;28;20425;-96
2021/06/15 05:04:29;;;;;;;16.92;12.05;;;;;;;;;;4971400;28;20752;-95
2021/06/15 05:06:56;;;;;;;13.93;12.43;;;;;;;;;;4971942;28;20769;-95
2021/06/15 05:09:27;;;;;;;13.00;11.60;;;;;;;;;;4971489;28;20422;-95
2021/06/15 05:11:56;;;;;;;13.38;11.15;;;;;;;;;;4972580;28;20441;-95
2021/06/15 05:14:26;;;;;;;13.80;11.32;;;;;;;;;;4971348;28;20508;-95
2021/06/15 05:16:57;;;;;;;12.50;11.20;;;;;;;;;;4969115;28;20418;-95
2021/06/15 05:19:25;;;;;;;15.40;11.90;;;;;;;;;;4968675;28;20410;-95
2021/06/15 05:21:55;;;;;;;12.88;11.05;;;;;;;;;;4970437;28;20416;-96
2021/06/15 05:24:32;;;;;;;12.60;10.68;;;;;;;;;;4974864;28;20416;-96
2021/06/15 05:26:59;;;;;;;10.80;9.70;;;;;;;;;;4967296;28;20417;-96
2021/06/15 05:29:26;;;;;;;11.10;10.05;;;;;;;;;;4968420;28;20830;-96
2021/06/15 05:31:55;;;;;;;11.98;10.05;;;;;;;;;;4969065;28;20446;-95
2021/06/15 05:34:22;;;;;;;12.30;11.00;;;;;;;;;;4973269;28;20770;-96
2021/06/15 05:36:50;;;;;;;11.93;10.73;;;;;;;;;;4971562;28;20432;-95
2021/06/15 05:39:17;;;;;;;9.88;8.88;;;;;;;;;;4981018;28;20466;-95
2021/06/15 05:41:44;;;;;;;8.52;7.68;;;;;;;;;;4972302;28;20426;-96
2021/06/15 05:44:11;;;;;;;8.20;7.38;;;;;;;;;;4968208;28;20485;-96
2021/06/15 05:46:38;;;;;;;7.38;4.80;;;;;;;;;;4968044;28;20430;-95
2021/06/15 05:49:07;;;;;;;6.45;4.55;;;;;;;;;;4968233;28;20426;-96
2021/06/15 05:51:34;;;;;;;7.40;5.27;;;;;;;;;;4968002;28;20444;-94
2021/06/15 05:54:02;;;;;;;7.60;4.95;;;;;;;;;;4971204;28;20429;-95
2021/06/15 05:56:30;;;;;;;10.27;4.90;;;;;;;;;;4970150;28;20986;-95
2021/06/15 05:58:57;;;;;;;6.80;4.30;;;;;;;;;;4971009;28;20422;-96
2021/06/15 06:01:25;;;;;;;7.03;3.75;;;;;;;;;;4970383;28;20415;-96
2021/06/15 06:03:58;;;;;;;5.93;4.07;;;;;;;;;;4957977;28;20979;-95
2021/06/15 06:09:11;;;;;;;7.30;4.38;;;;;;;;;;4968688;28;20438;-95
2021/06/15 06:14:14;;;;;;;5.50;3.42;;;;;;;;;;5030096;28;20410;-86
2021/06/15 06:16:42;;;;;;;6.43;3.63;;;;;;;;;;5012473;28;20897;-86
2021/06/15 06:19:10;;;;;;;6.47;3.85;;;;;;;;;;5011021;28;20419;-86
2021/06/15 06:21:38;;;;;;;7.82;3.92;;;;;;;;;;5010578;28;20498;-86
2021/06/15 06:24:07;;;;;;;6.60;3.42;;;;;;;;;;5009797;28;20413;-86
2021/06/15 06:26:34;;;;;;;6.13;3.30;;;;;;;;;;5010848;28;20430;-85
2021/06/15 06:29:01;;;;;;;8.98;3.92;;;;;;;;;;5008420;28;20426;-86
2021/06/15 06:31:28;;;;;;;7.35;3.53;;;;;;;;;;5012187;28;20427;-86
2021/06/15 06:33:55;;;;;;;8.85;3.67;;;;;;;;;;5021062;28;20413;-85
2021/06/15 06:36:22;;;;;;;7.68;3.67;;;;;;;;;;5020260;28;20399;-86
2021/06/15 06:38:52;;;;;;;4.57;3.33;;;;;;;;;;5019953;28;20411;-86
2021/06/15 06:41:19;;;;;;;5.93;3.50;;;;;;;;;;5020120;28;20403;-86
2021/06/15 06:43:47;;;;;;;6.13;3.45;;;;;;;;;;5019848;28;20406;-86
2021/06/15 06:46:14;;;;;;;6.35;3.15;;;;;;;;;;5016125;28;20426;-86
2021/06/15 06:48:41;;;;;;;5.47;3.55;;;;;;;;;;5015793;28;20409;-85
2021/06/15 06:51:08;;;;;;;5.50;2.85;;;;;;;;;;5019956;28;20405;-85
2021/06/15 06:53:36;;;;;;;11.75;10.30;;;;;;;;;;5017998;28;20411;-86
2021/06/15 06:56:07;;;;;;;5.43;3.55;;;;;;;;;;5017872;28;20398;-85
2021/06/15 06:58:34;;;;;;;6.78;3.58;;;;;;;;;;5009250;28;20407;-86
2021/06/15 07:01:02;;;;;;;10.60;7.00;;;;;;;;;;5007931;28;20407;-86
2021/06/15 07:03:29;;;;;;;8.70;5.40;;;;;;;;;;5018885;28;20409;-85
2021/06/15 07:05:56;;;;;;;6.63;3.42;;;;;;;;;;5020314;28;20405;-86
2021/06/15 07:08:24;;;;;;;7.47;4.18;;;;;;;;;;5020815;28;20407;-84
2021/06/15 07:10:51;;;;;;;13.77;7.82;;;;;;;;;;5020137;28;20833;-85
2021/06/15 07:13:19;;;;;;;8.43;5.10;;;;;;;;;;5019728;28;20410;-86
2021/06/15 07:15:46;;;;;;;4.68;3.70;;;;;;;;;;5019933;28;20405;-85
2021/06/15 07:18:13;;;;;;;7.22;4.43;;;;;;;;;;5020722;28;20916;-85
2021/06/15 07:20:41;;;;;;;6.55;3.80;;;;;;;;;;5008530;28;20900;-85
2021/06/15 07:23:08;;;;;;;14.00;6.30;;;;;;;;;;5008671;28;20421;-85
2021/06/15 07:25:35;;;;;;;7.32;4.20;;;;;;;;;;5019801;28;20409;-85
2021/06/15 07:28:02;;;;;;;8.20;3.67;;;;;;;;;;5022053;28;20397;-85
2021/06/15 07:30:31;;;;;;;4.75;2.83;;;;;;;;;;5006386;28;20434;-85
2021/06/15 07:32:58;;;;;;;7.17;3.40;;;;;;;;;;5017616;28;20406;-85
2021/06/15 07:35:25;;;;;;;6.20;3.00;;;;;;;;;;5019856;28;20414;-85
2021/06/15 07:37:52;;;;;;;6.80;2.80;;;;;;;;;;5020352;28;20447;-85
2021/06/15 07:40:23;;;;;;;4.88;2.90;;;;;;;;;;5018589;28;20418;-85
2021/06/15 07:42:50;;;;;;;8.07;3.00;;;;;;;;;;5019765;28;20786;-85
2021/06/15 07:45:18;;;;;;;5.57;3.10;;;;;;;;;;5020421;28;20401;-86
2021/06/15 07:47:46;;;;;;;4.90;2.90;;;;;;;;;;5020598;28;20401;-85
2021/06/15 07:50:15;;;;;;;6.30;3.20;;;;;;;;;;5020598;28;20894;-85
2021/06/15 07:52:42;;;;;;;5.45;3.10;;;;;;;;;;5020302;28;20416;-86
2021/06/15 07:55:10;;;;;;;6.70;3.70;;;;;;;;;;5021624;28;20724;-85
2021/06/15 07:57:37;;;;;;;6.57;3.65;;;;;;;;;;5014202;28;20957;-85
2021/06/15 08:00:05;;;;;;;6.00;3.65;;;;;;;;;;5005571;28;20403;-85
2021/06/15 08:02:32;;;;;;;5.65;3.65;;;;;;;;;;5004328;28;20891;-86
2021/06/15 08:05:01;;;;;;;6.93;3.50;;;;;;;;;;5005363;28;20428;-85
2021/06/15 08:07:28;;;;;;;6.53;3.60;;;;;;;;;;5017498;28;20401;-86
2021/06/15 08:09:56;;;;;;;8.63;3.85;;;;;;;;;;5020349;28;20781;-85
2021/06/15 08:12:24;;;;;;;5.97;3.40;;;;;;;;;;5020652;28;20410;-86
2021/06/15 08:14:51;;;;;;;6.05;3.80;;;;;;;;;;5020451;28;20407;-85
2021/06/15 08:17:18;;;;;;;6.72;3.60;;;;;;;;;;5020648;28;20424;-85
2021/06/15 08:19:45;;;;;;;8.32;4.40;;;;;;;;;;5020071;28;20405;-86
2021/06/15 08:22:14;;;;;;;6.20;3.20;;;;;;;;;;5017272;28;20701;-85
2021/06/15 08:24:41;;;;;;;11.35;4.10;;;;;;;;;;5004393;28;20829;-85
2021/06/15 08:27:09;;;;;;;7.30;4.03;;;;;;;;;;5008649;28;20915;-85
2021/06/15 08:29:36;;;;;;;6.60;3.70;;;;;;;;;;5020505;28;20421;-86
2021/06/15 08:32:03;;;;;;;5.43;3.72;;;;;;;;;;5021138;28;20401;-85
2021/06/15 08:34:30;;;;;;;8.13;3.78;;;;;;;;;;5007113;28;20635;-85
2021/06/15 08:36:57;;;;;;;7.32;3.90;;;;;;;;;;5020208;28;20870;-85
2021/06/15 08:39:25;;;;;;;7.45;3.60;;;;;;;;;;5020734;28;20416;-85
2021/06/15 08:41:52;;;;;;;6.55;3.70;;;;;;;;;;5020777;28;20419;-85
2021/06/15 08:44:19;;;;;;;5.57;3.42;;;;;;;;;;5020345;28;20405;-85
2021/06/15 08:46:46;;;;;;;4.95;3.85;;;;;;;;;;5020506;28;20397;-85
2021/06/15 08:49:13;;;;;;;6.00;4.13;;;;;;;;;;5020979;28;20401;-85
2021/06/15 08:51:42;;;;;;;6.32;3.60;;;;;;;;;;5020739;28;20414;-85
2021/06/15 08:54:12;;;;;;;8.38;4.40;;;;;;;;;;5020893;28;20401;-86
2021/06/15 08:56:40;;;;;;;7.10;3.90;;;;;;;;;;5016063;28;20414;-85
2021/06/15 08:59:17;;;;;;;6.70;3.72;;;;;;;;;;5020750;28;20397;-85
2021/06/15 09:01:45;;;;;;;4.90;4.00;;;;;;;;;;5021390;28;20409;-85
2021/06/15 09:04:12;;;;;;;7.40;3.67;;;;;;;;;;5019680;28;20401;-85
2021/06/15 09:06:39;;;;;;;7.80;3.97;;;;;;;;;;5019767;28;20889;-85
2021/06/15 09:09:06;;;;;;;5.53;3.90;;;;;;;;;;5021468;28;20412;-86
2021/06/15 09:11:51;;;;;;;6.53;3.60;;;;;;;;;;5016882;28;20455;-85
2021/06/15 09:14:18;;;;;;;7.63;3.42;;;;;;;;;;5002883;28;20414;-85
2021/06/15 09:16:47;;;;;;;6.47;3.60;;;;;;;;;;5005265;28;20399;-85
2021/06/15 09:19:17;;;;;;;5.65;3.60;;;;;;;;;;5021579;28;20869;-85
2021/06/15 09:21:45;;;;;;;6.70;3.30;;;;;;;;;;5020639;28;20744;-86
2021/06/15 09:24:20;;;;;;;8.20;3.80;;;;;;;;;;5021390;28;20413;-85
2021/06/15 09:27:09;;;;;;;4.85;3.42;;;;;;;;;;5019621;28;20422;-85
2021/06/15 09:29:38;;;;;;;7.97;3.40;;;;;;;;;;5013866;28;20519;-85
2021/06/15 09:32:06;;;;;;;6.50;3.53;;;;;;;;;;5025131;28;20413;-85
2021/06/15 09:34:34;;;;;;;6.40;3.55;;;;;;;;;;5023002;28;20397;-85
2021/06/15 09:37:05;;;;;;;6.77;3.47;;;;;;;;;;5025517;28;20505;-85
2021/06/15 09:39:32;;;;;;;5.68;3.40;;;;;;;;;;5024637;28;20409;-85
2021/06/15 09:42:00;;;;;;;5.95;3.22;;;;;;;;;;5023639;28;20405;-86
2021/06/15 09:44:30;;;;;;;5.28;3.28;;;;;;;;;;5024895;28;20413;-85
2021/06/15 09:47:00;;;;;;;8.23;3.90;;;;;;;;;;5025350;28;20434;-85
2021/06/15 09:49:29;;;;;;;6.03;3.67;;;;;;;;;;5017215;28;20399;-85
2021/06/15 09:52:14;;;;;;;5.70;3.83;;;;;;;;;;5020070;28;20437;-86
2021/06/15 09:54:42;;;;;;;4.53;3.60;;;;;;;;;;5018482;28;20402;-85
2021/06/15 09:57:10;;;;;;;6.27;3.70;;;;;;;;;;5019787;28;20413;-86
2021/06/15 09:59:38;;;;;;;4.93;3.25;;;;;;;;;;5020957;28;20877;-85
2021/06/15 10:02:05;;;;;;;6.43;3.30;;;;;;;;;;5018844;28;20921;-85
2021/06/15 10:04:32;;;;;;;5.70;3.63;;;;;;;;;;5019728;28;20405;-85
2021/06/15 10:07:00;;;;;;;4.63;3.28;;;;;;;;;;5019115;28;20411;-85
2021/06/15 10:09:29;;;;;;;7.22;4.18;;;;;;;;;;5019646;28;21287;-85
2021/06/15 10:11:58;;;;;;;6.32;4.10;;;;;;;;;;5019745;28;20922;-86
2021/06/15 10:14:27;;;;;;;5.53;4.00;;;;;;;;;;5021558;28;20415;-85
2021/06/15 10:16:57;;;;;;;7.38;3.50;;;;;;;;;;5016809;28;20489;-85
2021/06/15 10:19:24;;;;;;;8.05;4.00;;;;;;;;;;5020632;28;20893;-86
2021/06/15 10:21:52;;;;;;;8.40;4.13;;;;;;;;;;5020519;28;20423;-85
2021/06/15 10:24:22;;;;;;;6.28;4.13;;;;;;;;;;5019169;28;20394;-86
2021/06/15 10:26:50;;;;;;;5.45;3.63;;;;;;;;;;5018343;28;20440;-85
2021/06/15 10:29:17;;;;;;;7.95;4.10;;;;;;;;;;5019154;28;20401;-86
2021/06/15 10:31:47;;;;;;;8.05;4.13;;;;;;;;;;5018275;28;20425;-85
2021/06/15 10:34:16;;;;;;;8.15;4.22;;;;;;;;;;5019689;28;20408;-85
2021/06/15 10:36:45;;;;;;;7.20;4.00;;;;;;;;;;5016366;28;20928;-85
2021/06/15 10:39:19;;;;;;;7.72;4.00;;;;;;;;;;5013554;28;20504;-84
2021/06/15 10:41:47;;;;;;;7.40;4.10;;;;;;;;;;5010269;28;20450;-85
2021/06/15 10:44:15;;;;;;;6.43;4.00;;;;;;;;;;5006940;28;20414;-85
2021/06/15 10:46:43;;;;;;;7.03;4.00;;;;;;;;;;5010975;28;20418;-86
2021/06/15 10:49:12;;;;;;;6.30;4.03;;;;;;;;;;5005904;28;20521;-86
2021/06/15 10:51:55;;;;;;;6.28;4.45;;;;;;;;;;5005357;28;20430;-86
2021/06/15 10:54:31;;;;;;;6.88;4.10;;;;;;;;;;5007957;28;20490;-86
2021/06/15 10:57:22;;;;;;;6.72;3.85;;;;;;;;;;5010634;28;20430;-86
2021/06/15 11:00:20;;;;;;;6.57;4.10;;;;;;;;;;5010082;28;21458;-85
2021/06/15 11:03:20;;;;;;;7.22;4.10;;;;;;;;;;4992488;28;20411;-86
2021/06/15 11:05:54;;;;;;;5.82;4.13;;;;;;;;;;5008900;28;20461;-85
2021/06/15 11:08:24;;;;;;;6.47;4.30;;;;;;;;;;5007034;28;20512;-85
2021/06/15 11:10:54;;;;;;;6.97;4.60;;;;;;;;;;5008395;28;20417;-85
2021/06/15 11:13:43;;;;;;;6.90;4.15;;;;;;;;;;5014444;28;20735;-86
2021/06/15 11:16:21;;;;;;;10.13;4.75;;;;;;;;;;5011934;28;20406;-86
2021/06/15 11:19:26;;;;;;;6.75;4.60;;;;;;;;;;5006241;28;20418;-85
2021/06/15 11:21:55;;;;;;;5.70;4.13;;;;;;;;;;5012072;28;20516;-86
2021/06/15 11:24:25;;;;;;;6.07;3.85;;;;;;;;;;5008515;28;20407;-86
2021/06/15 11:26:54;;;;;;;7.68;4.85;;;;;;;;;;5013971;28;20408;-86
2021/06/15 11:29:31;;;;;;;7.90;4.93;;;;;;;;;;5007610;28;20411;-85
2021/06/15 11:32:20;;;;;;;5.05;4.20;;;;;;;;;;5008806;28;20452;-85
2021/06/15 11:35:17;;;;;;;7.20;4.50;;;;;;;;;;5022374;28;20412;-86
2021/06/15 11:37:46;;;;;;;4.97;4.20;;;;;;;;;;5019467;28;20425;-85
2021/06/15 11:40:33;;;;;;;7.63;4.30;;;;;;;;;;5015660;28;20407;-86
2021/06/15 11:43:17;;;;;;;9.40;4.85;;;;;;;;;;5045866;28;20457;-85
2021/06/15 11:45:45;;;;;;;6.57;4.53;;;;;;;;;;5037663;28;20488;-86
2021/06/15 11:48:31;;;;;;;8.45;4.57;;;;;;;;;;5033693;28;20393;-86
2021/06/15 11:51:00;;;;;;;5.53;3.88;;;;;;;;;;5012553;28;20862;-86
2021/06/15 11:53:27;;;;;;;6.80;4.38;;;;;;;;;;5002318;28;20416;-86
2021/06/15 11:55:57;;;;;;;6.80;4.50;;;;;;;;;;5002358;28;20409;-85
2021/06/15 11:58:27;;;;;;;7.13;4.47;;;;;;;;;;5004221;28;20409;-86
2021/06/15 12:00:57;;;;;;;6.80;4.55;;;;;;;;;;5003955;28;20425;-86
2021/06/15 12:03:25;;;;;;;5.22;4.18;;;;;;;;;;5004405;28;20401;-86
2021/06/15 12:05:54;;;;;;;10.77;4.13;;;;;;;;;;5003857;28;20425;-85
2021/06/15 12:08:21;;;;;;;5.80;4.38;;;;;;;;;;5008134;28;20399;-85
2021/06/15 12:10:49;;;;;;;7.40;4.30;;;;;;;;;;5005631;28;20419;-85
2021/06/15 12:13:19;;;;;;;5.35;4.00;;;;;;;;;;5004636;28;20461;-85
2021/06/15 12:15:54;;;;;;;6.63;4.30;;;;;;;;;;5005743;28;20422;-86
2021/06/15 12:18:44;;;;;;;6.22;4.50;;;;;;;;;;5007774;28;20403;-85
2021/06/15 12:21:16;;;;;;;6.13;4.32;;;;;;;;;;5005033;28;20428;-85
2021/06/15 12:23:46;;;;;;;6.10;4.57;;;;;;;;;;5009332;28;20428;-84
2021/06/15 12:26:20;;;;;;;8.88;5.00;;;;;;;;;;5005114;28;20421;-87
2021/06/15 12:28:50;;;;;;;8.07;4.55;;;;;;;;;;5008444;28;20752;-86
2021/06/15 12:31:21;;;;;;;9.45;4.90;;;;;;;;;;5003743;28;20502;-86
2021/06/15 12:33:49;;;;;;;6.93;4.10;;;;;;;;;;5012413;28;20505;-86
2021/06/15 12:36:18;;;;;;;7.65;4.40;;;;;;;;;;5008596;28;20412;-86
2021/06/15 12:38:46;;;;;;;5.68;4.38;;;;;;;;;;5005398;28;20421;-86
2021/06/15 12:41:15;;;;;;;4.88;3.90;;;;;;;;;;5007371;28;20415;-84
2021/06/15 12:43:43;;;;;;;7.65;4.65;;;;;;;;;;5009580;28;20878;-86
2021/06/15 12:46:21;;;;;;;5.10;4.60;;;;;;;;;;5005468;28;20407;-86
2021/06/15 12:48:53;;;;;;;7.20;5.47;;;;;;;;;;5006434;28;20414;-84
2021/06/15 12:51:25;;;;;;;7.15;5.05;;;;;;;;;;5006546;28;20423;-85
2021/06/15 12:53:52;;;;;;;6.07;4.90;;;;;;;;;;5007667;28;20410;-85
2021/06/15 12:56:27;;;;;;;6.40;4.75;;;;;;;;;;5005711;28;20403;-86
2021/06/15 12:58:57;;;;;;;8.30;4.97;;;;;;;;;;5007561;28;20416;-84
2021/06/15 13:01:33;;;;;;;6.90;4.60;;;;;;;;;;5009467;28;20403;-85
2021/06/15 13:04:00;;;;;;;7.25;5.22;;;;;;;;;;5009714;28;20400;-86
2021/06/15 13:06:29;;;;;;;7.63;4.72;;;;;;;;;;5009889;28;20407;-85
2021/06/15 13:08:56;;;;;;;5.43;4.35;;;;;;;;;;5012449;28;20434;-86
2021/06/15 13:11:25;;;;;;;5.38;4.60;;;;;;;;;;5010978;28;20879;-86
2021/06/15 13:13:58;;;;;;;7.38;4.68;;;;;;;;;;5010165;28;20505;-85
2021/06/15 13:16:42;;;;;;;7.13;4.70;;;;;;;;;;5009951;28;20412;-85
2021/06/15 13:19:12;;;;;;;5.85;4.68;;;;;;;;;;5012829;28;20988;-84
2021/06/15 13:21:44;;;;;;;8.48;4.35;;;;;;;;;;5005953;28;20918;-85
2021/06/15 13:24:13;;;;;;;7.57;4.47;;;;;;;;;;5010534;28;20399;-85
2021/06/15 13:26:40;;;;;;;5.82;4.55;;;;;;;;;;5009217;28;20411;-86
2021/06/15 13:29:07;;;;;;;6.57;4.75;;;;;;;;;;5015098;28;20416;-86
2021/06/15 13:31:35;;;;;;;8.05;4.70;;;;;;;;;;5010372;28;20423;-83
2021/06/15 13:34:08;;;;;;;7.57;4.85;;;;;;;;;;5013173;28;20501;-86
2021/06/15 13:36:36;;;;;;;6.15;4.50;;;;;;;;;;5016957;28;21361;-85
2021/06/15 13:39:11;;;;;;;6.95;4.53;;;;;;;;;;5015042;28;20409;-86
2021/06/15 13:41:38;;;;;;;5.13;3.93;;;;;;;;;;5013981;28;20482;-86
2021/06/15 13:44:06;;;;;;;6.07;4.50;;;;;;;;;;5013401;28;20405;-86
2021/06/15 13:46:33;;;;;;;6.10;4.40;;;;;;;;;;5012712;28;20407;-87
2021/06/15 13:49:01;;;;;;;7.40;4.70;;;;;;;;;;5015799;28;20416;-86
2021/06/15 13:51:29;;;;;;;5.22;4.30;;;;;;;;;;5016632;28;20424;-85
2021/06/15 13:54:01;;;;;;;7.97;4.45;;;;;;;;;;5014497;28;20403;-86
2021/06/15 13:56:28;;;;;;;6.13;4.28;;;;;;;;;;5015169;28;20413;-86
2021/06/15 13:58:58;;;;;;;4.95;4.43;;;;;;;;;;5013509;28;20416;-86
2021/06/15 14:01:26;;;;;;;8.83;4.53;;;;;;;;;;5016187;28;20812;-85
2021/06/15 14:03:52;;;;;;;5.90;4.53;;;;;;;;;;5014115;28;21318;-87
2021/06/15 14:06:21;;;;;;;5.90;4.60;;;;;;;;;;5013932;28;20402;-86
2021/06/15 14:08:48;;;;;;;6.13;4.47;;;;;;;;;;5011300;28;20407;-86
2021/06/15 14:11:16;;;;;;;6.07;4.18;;;;;;;;;;5010920;28;20403;-86
2021/06/15 14:13:43;;;;;;;4.90;4.37;;;;;;;;;;5015186;28;20410;-86
2021/06/15 14:16:10;;;;;;;5.88;4.70;;;;;;;;;;5012464;28;20409;-85
2021/06/15 14:18:38;;;;;;;6.80;4.18;;;;;;;;;;5014922;28;20458;-85
2021/06/15 14:21:06;;;;;;;6.67;4.60;;;;;;;;;;5013999;28;20770;-86
2021/06/15 14:23:36;;;;;;;5.22;4.45;;;;;;;;;;5014724;28;20538;-86
2021/06/15 14:26:04;;;;;;;6.50;4.30;;;;;;;;;;5012402;28;20411;-86
2021/06/15 14:28:31;;;;;;;8.50;4.32;;;;;;;;;;5013416;28;20405;-85
2021/06/15 14:30:58;;;;;;;5.88;4.00;;;;;;;;;;5013360;28;20433;-86
2021/06/15 14:33:25;;;;;;;6.13;4.00;;;;;;;;;;5014894;28;20430;-86
2021/06/15 14:35:52;;;;;;;5.88;4.00;;;;;;;;;;5016338;28;20405;-86
2021/06/15 14:38:19;;;;;;;6.70;4.03;;;;;;;;;;5009893;28;20425;-86
2021/06/15 14:40:47;;;;;;;4.68;3.67;;;;;;;;;;5012885;28;20420;-86
2021/06/15 14:43:14;;;;;;;5.53;3.67;;;;;;;;;;5012653;28;21383;-86
2021/06/15 14:45:41;;;;;;;5.93;4.40;;;;;;;;;;5013260;28;20409;-86
2021/06/15 14:48:09;;;;;;;6.60;4.50;;;;;;;;;;5012358;28;20417;-86
2021/06/15 14:50:37;;;;;;;5.85;4.60;;;;;;;;;;5012933;28;20902;-86
2021/06/15 14:53:04;;;;;;;4.95;4.35;;;;;;;;;;5013212;28;20427;-86
2021/06/15 14:55:32;;;;;;;6.10;4.00;;;;;;;;;;5009038;28;20407;-86
2021/06/15 14:58:00;;;;;;;4.47;4.00;;;;;;;;;;5008178;28;20437;-86
2021/06/15 15:00:27;;;;;;;6.40;4.10;;;;;;;;;;5008055;28;20409;-86